Time;durP1;ratioP1;P1;durP2;ratioP2;P2;SDS_P1;SDS_P2;PMS_P1;PMS_P2;Temp;Humidity;BMP_temperature;BMP_pressure;BME280_temperature;BME280_humidity;BME280_pressure;Samples;Min_cycle;Max_cycle;Signal;HPM_P1;HPM_P2
2022/03/28 00:01:08;;;;;;;25.00;8.25;;;;;;;;;;5090687;28;20027;-75
2022/03/28 00:03:35;;;;;;;20.48;8.25;;;;;;;;;;5090597;28;20489;-74
2022/03/28 00:06:01;;;;;;;20.17;8.88;;;;;;;;;;5090546;28;20024;-75
2022/03/28 00:08:28;;;;;;;17.00;7.55;;;;;;;;;;5090686;28;20339;-74
2022/03/28 00:10:54;;;;;;;21.65;8.38;;;;;;;;;;5089988;28;20381;-73
2022/03/28 00:13:20;;;;;;;23.25;8.95;;;;;;;;;;5085303;28;20062;-74
2022/03/28 00:15:46;;;;;;;20.38;8.10;;;;;;;;;;5092482;28;20308;-74
2022/03/28 00:18:12;;;;;;;20.15;8.23;;;;;;;;;;5089161;28;20511;-74
2022/03/28 00:20:38;;;;;;;29.67;8.60;;;;;;;;;;5072197;28;20028;-74
2022/03/28 00:23:05;;;;;;;23.63;9.13;;;;;;;;;;5088663;28;20031;-74
2022/03/28 00:25:31;;;;;;;22.48;8.63;;;;;;;;;;5090111;28;20118;-75
2022/03/28 00:27:57;;;;;;;31.63;8.40;;;;;;;;;;5088425;28;20032;-74
2022/03/28 00:30:24;;;;;;;17.80;7.97;;;;;;;;;;5090908;28;20028;-75
2022/03/28 00:32:50;;;;;;;21.17;8.73;;;;;;;;;;5090083;28;20016;-74
2022/03/28 00:35:17;;;;;;;17.48;8.10;;;;;;;;;;5090050;28;20071;-75
2022/03/28 00:37:43;;;;;;;31.35;8.73;;;;;;;;;;5089600;28;20070;-75
2022/03/28 00:40:10;;;;;;;26.90;8.35;;;;;;;;;;5088969;28;20031;-75
2022/03/28 00:42:37;;;;;;;22.98;7.95;;;;;;;;;;5086693;28;20024;-75
2022/03/28 00:45:03;;;;;;;21.15;8.32;;;;;;;;;;5089956;28;20028;-75
2022/03/28 00:47:30;;;;;;;28.33;8.73;;;;;;;;;;5090216;28;20035;-74
2022/03/28 00:49:56;;;;;;;20.98;8.10;;;;;;;;;;5087413;28;20031;-74
2022/03/28 00:52:23;;;;;;;21.55;8.57;;;;;;;;;;5088445;28;20490;-75
2022/03/28 00:54:49;;;;;;;18.98;7.53;;;;;;;;;;5089592;28;20035;-75
2022/03/28 00:57:15;;;;;;;28.67;8.85;;;;;;;;;;5086627;28;20044;-75
2022/03/28 00:59:41;;;;;;;21.45;7.68;;;;;;;;;;5089693;28;20061;-75
2022/03/28 01:02:07;;;;;;;23.17;7.80;;;;;;;;;;5088432;28;20401;-75
2022/03/28 01:04:33;;;;;;;24.27;8.93;;;;;;;;;;5089389;28;20024;-75
2022/03/28 01:06:59;;;;;;;24.48;8.40;;;;;;;;;;5089298;28;20035;-76
2022/03/28 01:09:25;;;;;;;23.92;8.15;;;;;;;;;;5089868;28;20373;-74
2022/03/28 01:11:52;;;;;;;17.67;8.27;;;;;;;;;;5086018;28;20020;-75
2022/03/28 01:14:18;;;;;;;22.92;7.85;;;;;;;;;;5095809;28;20621;-74
2022/03/28 01:19:29;;;;;;;23.50;8.43;;;;;;;;;;5088423;28;20275;-74
2022/03/28 01:21:55;;;;;;;22.77;8.57;;;;;;;;;;5088782;28;20040;-74
2022/03/28 01:24:21;;;;;;;24.52;8.77;;;;;;;;;;5087559;28;20052;-74
2022/03/28 01:26:48;;;;;;;24.65;9.00;;;;;;;;;;5088329;28;20028;-74
2022/03/28 01:29:14;;;;;;;22.98;9.10;;;;;;;;;;5083616;28;20012;-75
2022/03/28 01:31:41;;;;;;;18.98;7.55;;;;;;;;;;5088524;28;20523;-74
2022/03/28 01:34:07;;;;;;;27.33;9.30;;;;;;;;;;5089126;28;20099;-74
2022/03/28 01:36:33;;;;;;;20.55;8.93;;;;;;;;;;5088921;28;20099;-74
2022/03/28 01:38:59;;;;;;;29.02;8.98;;;;;;;;;;5088549;28;20041;-75
2022/03/28 01:41:25;;;;;;;20.48;8.05;;;;;;;;;;5088194;28;20107;-75
2022/03/28 01:43:51;;;;;;;19.35;7.70;;;;;;;;;;5074466;28;20111;-74
2022/03/28 01:46:17;;;;;;;18.58;8.70;;;;;;;;;;5088774;28;20032;-74
2022/03/28 01:48:43;;;;;;;22.55;9.35;;;;;;;;;;5088819;28;20464;-74
2022/03/28 01:51:09;;;;;;;18.77;8.73;;;;;;;;;;5088615;28;20017;-73
2022/03/28 01:53:35;;;;;;;25.90;8.48;;;;;;;;;;5084316;28;20362;-74
2022/03/28 01:56:01;;;;;;;19.77;7.97;;;;;;;;;;5088936;28;20031;-74
2022/03/28 01:58:27;;;;;;;20.52;8.05;;;;;;;;;;5082895;28;20036;-75
2022/03/28 02:00:53;;;;;;;20.15;7.65;;;;;;;;;;5088486;28;20027;-73
2022/03/28 02:03:19;;;;;;;23.30;7.95;;;;;;;;;;5088336;28;20067;-75
2022/03/28 02:05:45;;;;;;;18.63;7.72;;;;;;;;;;5089391;28;20393;-74
2022/03/28 02:08:11;;;;;;;19.10;8.50;;;;;;;;;;5088919;28;20267;-75
2022/03/28 02:10:37;;;;;;;25.63;8.88;;;;;;;;;;5071024;28;20028;-75
2022/03/28 02:13:04;;;;;;;18.85;7.55;;;;;;;;;;5088494;28;20028;-74
2022/03/28 02:15:30;;;;;;;19.08;7.47;;;;;;;;;;5091163;28;20028;-74
2022/03/28 02:17:56;;;;;;;18.70;8.07;;;;;;;;;;5092756;28;20468;-74
2022/03/28 02:20:22;;;;;;;19.80;8.13;;;;;;;;;;5092161;28;20036;-75
2022/03/28 02:22:48;;;;;;;17.10;8.35;;;;;;;;;;5091994;28;20065;-75
2022/03/28 02:25:15;;;;;;;18.63;7.97;;;;;;;;;;5092294;28;20450;-75
2022/03/28 02:27:42;;;;;;;20.95;7.10;;;;;;;;;;5083274;28;20365;-77
2022/03/28 02:30:09;;;;;;;15.05;7.18;;;;;;;;;;5085658;28;20025;-74
2022/03/28 02:32:35;;;;;;;17.50;7.22;;;;;;;;;;5090582;28;20126;-74
2022/03/28 02:35:01;;;;;;;21.30;8.40;;;;;;;;;;5086621;28;20020;-74
2022/03/28 02:37:28;;;;;;;20.42;8.52;;;;;;;;;;5091946;28;20386;-74
2022/03/28 02:39:54;;;;;;;17.83;7.55;;;;;;;;;;5090628;28;20048;-74
2022/03/28 02:42:22;;;;;;;24.23;8.30;;;;;;;;;;5091572;28;20027;-74
2022/03/28 02:44:49;;;;;;;26.00;8.25;;;;;;;;;;5088977;28;20039;-75
2022/03/28 02:47:16;;;;;;;21.60;7.53;;;;;;;;;;5092027;28;20099;-74
2022/03/28 02:49:42;;;;;;;17.55;7.10;;;;;;;;;;5091832;28;20031;-74
2022/03/28 02:52:08;;;;;;;21.80;7.68;;;;;;;;;;5091407;28;20020;-74
2022/03/28 02:54:34;;;;;;;19.40;8.60;;;;;;;;;;5087267;28;20028;-75
2022/03/28 02:57:00;;;;;;;17.02;7.72;;;;;;;;;;5091488;28;20027;-75
2022/03/28 02:59:26;;;;;;;20.98;8.20;;;;;;;;;;5087467;28;20515;-75
2022/03/28 03:01:52;;;;;;;21.52;7.88;;;;;;;;;;5073593;28;20024;-75
2022/03/28 03:04:18;;;;;;;21.90;7.70;;;;;;;;;;5090843;28;20034;-75
2022/03/28 03:06:44;;;;;;;18.23;7.85;;;;;;;;;;5091782;28;20027;-75
2022/03/28 03:09:10;;;;;;;17.60;7.63;;;;;;;;;;5095772;28;20640;-74
2022/03/28 03:11:36;;;;;;;18.38;7.65;;;;;;;;;;5091577;28;20024;-75
2022/03/28 03:14:03;;;;;;;20.92;7.88;;;;;;;;;;5084230;28;20485;-75
2022/03/28 03:16:29;;;;;;;17.30;7.57;;;;;;;;;;5092216;28;20024;-75
2022/03/28 03:18:55;;;;;;;23.23;8.77;;;;;;;;;;5091143;28;20030;-75
2022/03/28 03:21:22;;;;;;;17.33;8.18;;;;;;;;;;5091259;28;20051;-74
2022/03/28 03:23:48;;;;;;;23.27;6.75;;;;;;;;;;5091722;28;20038;-75
2022/03/28 03:26:14;;;;;;;17.40;6.90;;;;;;;;;;5090389;28;20502;-74
2022/03/28 03:28:40;;;;;;;20.10;7.85;;;;;;;;;;5088029;28;20061;-74
2022/03/28 03:31:06;;;;;;;18.23;7.72;;;;;;;;;;5091507;28;20511;-75
2022/03/28 03:33:33;;;;;;;21.25;8.35;;;;;;;;;;5091262;28;20020;-75
2022/03/28 03:36:00;;;;;;;23.52;9.00;;;;;;;;;;5091417;28;20035;-77
2022/03/28 03:38:26;;;;;;;21.52;9.20;;;;;;;;;;5092039;28;20607;-75
2022/03/28 03:40:53;;;;;;;24.15;7.70;;;;;;;;;;5091579;28;20492;-75
2022/03/28 03:43:19;;;;;;;31.85;8.70;;;;;;;;;;5090581;28;20465;-75
2022/03/28 03:45:45;;;;;;;25.80;8.15;;;;;;;;;;5087752;28;20047;-76
2022/03/28 03:48:11;;;;;;;22.65;8.55;;;;;;;;;;5091358;28;20024;-75
2022/03/28 03:50:37;;;;;;;26.00;8.60;;;;;;;;;;5090207;28;20027;-75
2022/03/28 03:53:03;;;;;;;18.92;7.72;;;;;;;;;;5085769;28;20040;-75
2022/03/28 03:55:29;;;;;;;16.23;6.95;;;;;;;;;;5090122;28;20032;-75
2022/03/28 03:57:55;;;;;;;16.20;7.65;;;;;;;;;;5090071;28;20032;-75
2022/03/28 04:00:23;;;;;;;17.80;7.63;;;;;;;;;;5087868;28;20391;-75
2022/03/28 04:02:50;;;;;;;17.30;7.60;;;;;;;;;;5090374;28;20075;-75
2022/03/28 04:05:16;;;;;;;18.80;7.70;;;;;;;;;;5090662;28;20036;-75
2022/03/28 04:07:42;;;;;;;28.08;8.90;;;;;;;;;;5090959;28;20115;-75
2022/03/28 04:10:08;;;;;;;20.52;8.27;;;;;;;;;;5082640;28;20047;-76
2022/03/28 04:12:34;;;;;;;16.73;8.05;;;;;;;;;;5090341;28;20040;-75
2022/03/28 04:15:01;;;;;;;17.27;8.25;;;;;;;;;;5083576;28;20032;-75
2022/03/28 04:17:28;;;;;;;22.33;9.00;;;;;;;;;;5088187;28;20135;-75
2022/03/28 04:19:54;;;;;;;17.15;8.05;;;;;;;;;;5090003;28;20024;-75
2022/03/28 04:22:21;;;;;;;22.27;8.48;;;;;;;;;;5089943;28;20024;-75
2022/03/28 04:24:47;;;;;;;26.10;8.48;;;;;;;;;;5071323;28;20052;-76
2022/03/28 04:27:13;;;;;;;20.33;7.85;;;;;;;;;;5090164;28;20031;-75
2022/03/28 04:29:39;;;;;;;18.48;8.27;;;;;;;;;;5087591;28;20032;-75
2022/03/28 04:32:05;;;;;;;20.15;7.95;;;;;;;;;;5089651;28;20031;-76
2022/03/28 04:34:31;;;;;;;21.85;8.18;;;;;;;;;;5089581;28;20534;-75
2022/03/28 04:36:57;;;;;;;25.30;9.18;;;;;;;;;;5089588;28;20489;-75
2022/03/28 04:39:23;;;;;;;32.05;8.77;;;;;;;;;;5089330;28;20236;-76
2022/03/28 04:41:49;;;;;;;21.73;8.23;;;;;;;;;;5089541;28;20579;-75
2022/03/28 04:44:15;;;;;;;19.42;8.07;;;;;;;;;;5089404;28;20479;-75
2022/03/28 04:46:41;;;;;;;24.52;7.25;;;;;;;;;;5094816;28;20044;-75
2022/03/28 04:49:10;;;;;;;30.50;8.50;;;;;;;;;;5085126;28;20598;-75
2022/03/28 04:51:36;;;;;;;26.85;8.98;;;;;;;;;;5089959;28;20039;-75
2022/03/28 04:54:02;;;;;;;21.42;9.38;;;;;;;;;;5082398;28;20145;-75
2022/03/28 04:56:28;;;;;;;27.38;8.95;;;;;;;;;;5094738;28;20107;-75
2022/03/28 04:58:54;;;;;;;17.15;7.63;;;;;;;;;;5089943;28;20036;-75
2022/03/28 05:01:20;;;;;;;19.27;8.07;;;;;;;;;;5087244;28;20115;-75
2022/03/28 05:03:46;;;;;;;18.02;7.70;;;;;;;;;;5088676;28;20414;-75
2022/03/28 05:06:12;;;;;;;17.90;8.45;;;;;;;;;;5089230;28;20028;-75
2022/03/28 05:08:38;;;;;;;25.20;8.40;;;;;;;;;;5088909;28;20046;-75
2022/03/28 05:11:04;;;;;;;22.95;8.98;;;;;;;;;;5088884;28;20143;-76
2022/03/28 05:13:30;;;;;;;20.48;8.80;;;;;;;;;;5091438;28;20453;-66
2022/03/28 05:15:57;;;;;;;23.55;8.77;;;;;;;;;;5086268;28;20177;-66
2022/03/28 05:18:24;;;;;;;22.95;8.38;;;;;;;;;;5088727;28;20036;-65
2022/03/28 05:20:50;;;;;;;23.90;8.13;;;;;;;;;;5088680;28;20025;-65
2022/03/28 05:23:16;;;;;;;19.65;8.07;;;;;;;;;;5087469;28;20031;-66
2022/03/28 05:25:41;;;;;;;27.95;8.63;;;;;;;;;;5089219;28;20053;-66
2022/03/28 05:28:08;;;;;;;26.58;9.27;;;;;;;;;;5088483;28;20057;-66
2022/03/28 05:30:33;;;;;;;23.90;9.80;;;;;;;;;;5087568;28;20485;-66
2022/03/28 05:33:00;;;;;;;23.55;8.73;;;;;;;;;;5087984;28;20115;-66
2022/03/28 05:35:26;;;;;;;18.63;8.15;;;;;;;;;;5087537;28;20103;-66
2022/03/28 05:37:52;;;;;;;26.30;8.30;;;;;;;;;;5083879;28;20341;-67
2022/03/28 05:40:18;;;;;;;20.77;8.95;;;;;;;;;;5088441;28;20055;-66
2022/03/28 05:42:44;;;;;;;20.70;8.07;;;;;;;;;;5084033;28;20020;-66
2022/03/28 05:45:11;;;;;;;18.40;8.23;;;;;;;;;;5082257;28;20127;-66
2022/03/28 05:47:37;;;;;;;22.58;7.95;;;;;;;;;;5084960;28;20024;-65
2022/03/28 05:50:03;;;;;;;21.70;8.38;;;;;;;;;;5093042;28;20028;-65
2022/03/28 05:52:29;;;;;;;21.80;8.25;;;;;;;;;;5090920;28;20032;-66
2022/03/28 05:54:55;;;;;;;25.02;8.60;;;;;;;;;;5088699;28;20016;-65
2022/03/28 05:57:21;;;;;;;21.75;8.20;;;;;;;;;;5092466;28;20103;-65
2022/03/28 05:59:47;;;;;;;25.52;8.98;;;;;;;;;;5090936;28;20468;-66
2022/03/28 06:02:13;;;;;;;18.48;8.02;;;;;;;;;;5091254;28;20386;-66
2022/03/28 06:04:39;;;;;;;20.25;7.90;;;;;;;;;;5092624;28;20500;-65
2022/03/28 06:07:05;;;;;;;20.58;9.02;;;;;;;;;;5092239;28;20418;-66
2022/03/28 06:09:31;;;;;;;21.40;8.18;;;;;;;;;;5086908;28;20078;-65
2022/03/28 06:11:57;;;;;;;25.88;8.50;;;;;;;;;;5090974;28;20024;-65
2022/03/28 06:14:23;;;;;;;20.67;8.93;;;;;;;;;;5095955;28;20032;-65
2022/03/28 06:16:49;;;;;;;18.45;8.27;;;;;;;;;;5085799;28;20031;-66
2022/03/28 06:19:15;;;;;;;21.52;8.13;;;;;;;;;;5091879;28;20445;-65
2022/03/28 06:21:41;;;;;;;27.65;9.15;;;;;;;;;;5091097;28;20472;-65
2022/03/28 06:24:08;;;;;;;40.42;11.40;;;;;;;;;;5101422;28;20051;-64
2022/03/28 06:26:34;;;;;;;23.80;9.63;;;;;;;;;;5092595;28;20039;-64
2022/03/28 06:29:00;;;;;;;26.00;10.13;;;;;;;;;;5091939;28;20031;-65
2022/03/28 06:31:26;;;;;;;29.60;9.63;;;;;;;;;;5080217;28;20503;-64
2022/03/28 06:33:57;;;;;;;25.10;8.90;;;;;;;;;;5091307;28;20110;-64
2022/03/28 06:36:23;;;;;;;26.35;9.00;;;;;;;;;;5092046;28;20376;-64
2022/03/28 06:38:49;;;;;;;22.02;9.02;;;;;;;;;;5092010;28;20110;-65
2022/03/28 06:41:15;;;;;;;29.60;8.95;;;;;;;;;;5091584;28;20072;-64
2022/03/28 06:43:41;;;;;;;33.90;9.80;;;;;;;;;;5091226;28;20114;-64
2022/03/28 06:46:07;;;;;;;21.08;9.30;;;;;;;;;;5090220;28;20066;-64
2022/03/28 06:48:34;;;;;;;24.98;9.68;;;;;;;;;;5091345;28;20052;-65
2022/03/28 06:51:00;;;;;;;31.20;9.10;;;;;;;;;;5091729;28;20031;-65
2022/03/28 06:53:26;;;;;;;40.28;11.02;;;;;;;;;;5085413;28;20027;-64
2022/03/28 06:55:53;;;;;;;28.65;9.90;;;;;;;;;;5091498;28;20039;-67
2022/03/28 06:58:19;;;;;;;24.63;9.48;;;;;;;;;;5092495;28;20039;-65
2022/03/28 07:00:45;;;;;;;28.00;10.07;;;;;;;;;;5071852;28;20034;-65
2022/03/28 07:03:12;;;;;;;26.33;11.00;;;;;;;;;;5091765;28;20016;-65
2022/03/28 07:05:38;;;;;;;26.15;9.98;;;;;;;;;;5092133;28;20473;-65
2022/03/28 07:08:04;;;;;;;28.77;11.00;;;;;;;;;;5091944;28;20050;-65
2022/03/28 07:10:30;;;;;;;25.45;9.38;;;;;;;;;;5093314;28;20024;-65
2022/03/28 07:12:56;;;;;;;21.58;9.75;;;;;;;;;;5093513;28;20043;-65
2022/03/28 07:15:27;;;;;;;25.52;9.32;;;;;;;;;;5093872;28;20030;-66
2022/03/28 07:17:56;;;;;;;29.38;10.55;;;;;;;;;;5074505;28;20102;-65
2022/03/28 07:20:26;;;;;;;23.85;9.50;;;;;;;;;;5059883;28;20097;-65
2022/03/28 07:22:52;;;;;;;;;;;;;;;;;;5085746;28;20032;-65
2022/03/28 07:25:19;;;;;;;21.73;8.90;;;;;;;;;;5094108;28;19949;-67
2022/03/28 07:27:47;;;;;;;19.80;9.60;;;;;;;;;;5094892;28;20495;-64
2022/03/28 07:30:14;;;;;;;24.35;9.38;;;;;;;;;;5094020;28;20020;-64
2022/03/28 07:32:41;;;;;;;17.33;8.93;;;;;;;;;;5086544;28;20469;-64
2022/03/28 07:35:08;;;;;;;24.17;9.80;;;;;;;;;;5094098;28;20020;-64
2022/03/28 07:37:34;;;;;;;24.02;10.48;;;;;;;;;;5092501;28;20041;-64
2022/03/28 07:40:00;;;;;;;24.42;10.13;;;;;;;;;;5092677;28;20031;-66
2022/03/28 07:42:26;;;;;;;29.98;11.07;;;;;;;;;;5091532;28;20016;-64
2022/03/28 07:44:56;;;;;;;28.35;10.30;;;;;;;;;;5091234;28;20484;-64
2022/03/28 07:47:26;;;;;;;25.25;10.43;;;;;;;;;;5085377;28;20028;-64
2022/03/28 07:49:53;;;;;;;33.78;10.30;;;;;;;;;;5086739;28;20020;-64
2022/03/28 07:52:19;;;;;;;28.50;9.80;;;;;;;;;;5091019;28;20539;-64
2022/03/28 07:54:48;;;;;;;30.58;9.30;;;;;;;;;;5090916;28;20019;-64
2022/03/28 07:57:14;;;;;;;31.63;12.68;;;;;;;;;;5090914;28;20052;-65
2022/03/28 07:59:44;;;;;;;32.38;11.55;;;;;;;;;;5093319;28;20024;-64
2022/03/28 08:02:10;;;;;;;26.92;10.63;;;;;;;;;;5103705;28;20059;-64
2022/03/28 08:04:36;;;;;;;29.15;10.93;;;;;;;;;;5091047;28;20441;-64
2022/03/28 08:07:05;;;;;;;29.25;11.13;;;;;;;;;;5090836;28;20055;-65
2022/03/28 08:09:31;;;;;;;23.42;10.25;;;;;;;;;;5090835;28;20043;-64
2022/03/28 08:11:57;;;;;;;30.70;10.25;;;;;;;;;;5089835;28;20027;-65
2022/03/28 08:14:23;;;;;;;36.50;11.73;;;;;;;;;;5092547;28;20020;-64
2022/03/28 08:16:49;;;;;;;24.25;9.55;;;;;;;;;;5087801;28;20073;-64
2022/03/28 08:19:15;;;;;;;31.20;11.07;;;;;;;;;;5090200;28;20039;-64
2022/03/28 08:21:41;;;;;;;31.85;9.93;;;;;;;;;;5090394;28;20102;-64
2022/03/28 08:24:07;;;;;;;33.42;10.82;;;;;;;;;;5090374;28;20027;-64
2022/03/28 08:26:33;;;;;;;27.55;9.73;;;;;;;;;;5085616;28;20123;-65
2022/03/28 08:28:59;;;;;;;22.20;9.77;;;;;;;;;;5090101;28;20496;-67
2022/03/28 08:31:25;;;;;;;28.05;9.57;;;;;;;;;;5085236;28;20035;-64
2022/03/28 08:33:51;;;;;;;23.92;6.03;;;;;;;;;;5088366;28;20032;-65
2022/03/28 08:36:17;;;;;;;31.75;10.40;;;;;;;;;;5089741;28;20534;-64
2022/03/28 08:38:43;;;;;;;19.33;7.57;;;;;;;;;;5089922;28;20043;-65
2022/03/28 08:41:14;;;;;;;24.88;7.30;;;;;;;;;;5087843;28;20032;-65
2022/03/28 08:43:40;;;;;;;24.55;10.02;;;;;;;;;;5089671;28;20024;-64
2022/03/28 08:46:08;;;;;;;28.02;9.32;;;;;;;;;;5088720;28;20050;-65
2022/03/28 08:48:37;;;;;;;21.95;8.23;;;;;;;;;;5088955;28;20096;-64
2022/03/28 08:51:03;;;;;;;23.40;7.28;;;;;;;;;;5088658;28;20107;-65
2022/03/28 08:53:29;;;;;;;28.08;9.18;;;;;;;;;;5083991;28;20043;-65
2022/03/28 08:55:55;;;;;;;22.02;9.13;;;;;;;;;;5089612;28;20039;-64
2022/03/28 08:58:22;;;;;;;15.77;5.70;;;;;;;;;;5089266;28;20043;-64
2022/03/28 09:00:48;;;;;;;30.85;10.82;;;;;;;;;;5089461;28;20101;-64
2022/03/28 09:03:14;;;;;;;27.25;9.95;;;;;;;;;;5087204;28;20111;-64
2022/03/28 09:05:40;;;;;;;17.83;7.95;;;;;;;;;;5089116;28;20177;-64
2022/03/28 09:08:08;;;;;;;30.67;10.07;;;;;;;;;;5088285;28;20108;-65
2022/03/28 09:10:35;;;;;;;23.08;8.88;;;;;;;;;;5088796;28;20033;-67
2022/03/28 09:13:11;;;;;;;28.05;10.10;;;;;;;;;;5088321;28;20031;-68
2022/03/28 09:15:46;;;;;;;9.35;4.60;;;;;;;;;;5088432;28;20032;-67
2022/03/28 09:18:31;;;;;;;25.75;9.77;;;;;;;;;;5083088;28;20057;-67
2022/03/28 09:21:02;;;;;;;4.75;3.70;;;;;;;;;;5085459;28;20032;-65
2022/03/28 09:23:31;;;;;;;15.18;4.57;;;;;;;;;;5087542;28;20044;-65
2022/03/28 09:25:58;;;;;;;20.10;8.27;;;;;;;;;;5088695;28;20088;-65
2022/03/28 09:28:25;;;;;;;26.38;9.23;;;;;;;;;;5088639;28;20311;-65
2022/03/28 09:30:51;;;;;;;27.02;9.88;;;;;;;;;;5085192;28;20122;-64
2022/03/28 09:33:18;;;;;;;34.83;10.32;;;;;;;;;;5080353;28;20099;-65
2022/03/28 09:35:48;;;;;;;32.10;11.15;;;;;;;;;;5089227;28;20059;-67
2022/03/28 09:38:18;;;;;;;27.60;8.87;;;;;;;;;;5089682;28;20047;-64
2022/03/28 09:40:51;;;;;;;20.83;7.40;;;;;;;;;;5084483;28;20488;-67
2022/03/28 09:43:21;;;;;;;17.33;7.25;;;;;;;;;;5091398;28;20020;-65
2022/03/28 09:45:51;;;;;;;31.05;10.65;;;;;;;;;;5086957;28;20070;-65
2022/03/28 09:48:22;;;;;;;26.60;9.93;;;;;;;;;;5093046;28;20023;-65
2022/03/28 09:50:48;;;;;;;;;;;;;;;;;;5102760;28;20049;-64
2022/03/28 09:53:14;;;;;;;23.70;9.32;;;;;;;;;;5083282;28;19904;-65
2022/03/28 09:56:06;;;;;;;26.25;7.68;;;;;;;;;;5088916;28;20020;-65
2022/03/28 09:58:32;;;;;;;32.88;9.32;;;;;;;;;;5085427;28;20040;-65
2022/03/28 10:01:01;;;;;;;24.13;8.57;;;;;;;;;;5090631;28;20028;-65
2022/03/28 10:03:32;;;;;;;26.73;8.57;;;;;;;;;;5074132;28;20028;-65
2022/03/28 10:05:59;;;;;;;25.88;8.52;;;;;;;;;;5068397;28;20113;-65
2022/03/28 10:08:27;;;;;;;34.95;11.73;;;;;;;;;;5070119;28;20035;-65
2022/03/28 10:10:55;;;;;;;31.50;10.57;;;;;;;;;;5069598;28;20661;-65
2022/03/28 10:13:29;;;;;;;41.03;12.02;;;;;;;;;;5069499;28;20283;-67
2022/03/28 10:15:55;;;;;;;26.77;11.55;;;;;;;;;;5068504;28;20485;-65
2022/03/28 10:18:22;;;;;;;30.92;10.93;;;;;;;;;;5079296;28;20059;-64
2022/03/28 10:20:53;;;;;;;29.67;10.43;;;;;;;;;;5087874;28;20469;-65
2022/03/28 10:23:20;;;;;;;32.90;12.68;;;;;;;;;;5088113;28;20035;-65
2022/03/28 10:25:46;;;;;;;21.98;9.27;;;;;;;;;;5087990;28;20077;-65
2022/03/28 10:28:12;;;;;;;19.63;6.28;;;;;;;;;;5087557;28;20043;-65
2022/03/28 10:30:38;;;;;;;17.83;6.20;;;;;;;;;;5087407;28;20026;-65
2022/03/28 10:33:16;;;;;;;22.60;9.73;;;;;;;;;;5075332;28;20350;-65
2022/03/28 10:35:55;;;;;;;20.85;9.63;;;;;;;;;;5092350;28;20353;-65
2022/03/28 10:38:22;;;;;;;17.23;7.63;;;;;;;;;;5111218;28;20043;-65
2022/03/28 10:40:59;;;;;;;17.98;8.65;;;;;;;;;;5111094;28;20031;-65
2022/03/28 10:43:27;;;;;;;27.77;10.00;;;;;;;;;;5109956;28;20063;-65
2022/03/28 10:45:59;;;;;;;19.58;7.45;;;;;;;;;;5093445;28;20111;-67
2022/03/28 10:48:36;;;;;;;30.13;9.52;;;;;;;;;;5070472;28;20115;-65
2022/03/28 10:51:12;;;;;;;19.98;6.45;;;;;;;;;;5069989;28;20037;-65
2022/03/28 10:53:41;;;;;;;23.13;7.07;;;;;;;;;;5070234;28;20030;-65
2022/03/28 10:56:07;;;;;;;25.63;9.93;;;;;;;;;;5070557;28;20028;-67
2022/03/28 10:58:38;;;;;;;19.27;7.53;;;;;;;;;;5070405;28;20128;-65
2022/03/28 11:01:06;;;;;;;6.13;3.53;;;;;;;;;;5070108;28;20083;-65
2022/03/28 11:03:36;;;;;;;20.90;8.32;;;;;;;;;;5068790;28;20040;-65
2022/03/28 11:06:03;;;;;;;36.88;12.38;;;;;;;;;;5070161;28;20082;-65
2022/03/28 11:08:33;;;;;;;17.55;6.18;;;;;;;;;;5070341;28;20039;-65
2022/03/28 11:11:17;;;;;;;16.52;6.93;;;;;;;;;;5070388;28;20056;-65
2022/03/28 11:13:44;;;;;;;18.95;7.15;;;;;;;;;;5082853;28;20031;-65
2022/03/28 11:16:19;;;;;;;13.68;6.35;;;;;;;;;;5111043;28;20020;-65
2022/03/28 11:18:45;;;;;;;19.65;8.73;;;;;;;;;;5085901;28;20076;-64
2022/03/28 11:21:11;;;;;;;18.88;8.23;;;;;;;;;;5069996;28;20060;-65
2022/03/28 11:23:42;;;;;;;13.27;5.05;;;;;;;;;;5069358;28;20025;-65
2022/03/28 11:26:10;;;;;;;24.45;7.90;;;;;;;;;;5070231;28;20025;-65
2022/03/28 11:28:39;;;;;;;12.30;5.18;;;;;;;;;;5070544;28;20040;-65
2022/03/28 11:31:11;;;;;;;17.05;6.10;;;;;;;;;;5069459;28;20029;-65
2022/03/28 11:33:42;;;;;;;14.27;4.97;;;;;;;;;;5084617;28;20077;-65
2022/03/28 11:36:08;;;;;;;6.18;4.20;;;;;;;;;;5099155;28;20326;-65
2022/03/28 11:38:42;;;;;;;21.02;6.85;;;;;;;;;;5088864;28;20481;-65
2022/03/28 11:41:08;;;;;;;10.82;5.43;;;;;;;;;;5087493;28;20028;-66
2022/03/28 11:43:36;;;;;;;16.55;6.80;;;;;;;;;;5097214;28;20381;-65
2022/03/28 11:46:02;;;;;;;18.17;8.23;;;;;;;;;;5087954;28;20496;-65
2022/03/28 11:51:14;;;;;;;10.60;5.68;;;;;;;;;;5110977;22;21214;-65
2022/03/28 11:53:40;;;;;;;;;;;;;;;;;;5108285;28;20101;-66
2022/03/28 11:56:07;;;;;;;28.42;9.40;;;;;;;;;;5099326;28;20360;-66
2022/03/28 11:58:33;;;;;;;21.17;9.65;;;;;;;;;;5110082;28;20027;-67
2022/03/28 12:01:10;;;;;;;14.60;5.40;;;;;;;;;;5111673;28;20491;-67
2022/03/28 12:03:37;;;;;;;20.80;8.63;;;;;;;;;;5093299;28;20026;-66
2022/03/28 12:06:05;;;;;;;10.07;3.65;;;;;;;;;;5111014;28;20139;-67
2022/03/28 12:08:31;;;;;;;16.85;7.32;;;;;;;;;;5107396;28;20030;-67
2022/03/28 12:10:57;;;;;;;12.32;6.25;;;;;;;;;;5094873;28;20519;-66
2022/03/28 12:13:24;;;;;;;20.75;7.68;;;;;;;;;;5102626;28;20024;-66
2022/03/28 12:15:54;;;;;;;25.90;9.93;;;;;;;;;;5107208;28;20052;-66
2022/03/28 12:18:22;;;;;;;16.05;5.68;;;;;;;;;;5106733;28;20397;-67
2022/03/28 12:20:49;;;;;;;23.70;8.75;;;;;;;;;;5090842;28;20488;-66
2022/03/28 12:23:16;;;;;;;22.00;10.50;;;;;;;;;;5089394;28;20465;-66
2022/03/28 12:25:43;;;;;;;27.25;9.50;;;;;;;;;;5090448;28;20028;-66
2022/03/28 12:28:13;;;;;;;19.95;8.05;;;;;;;;;;5090112;28;20020;-66
2022/03/28 12:30:42;;;;;;;20.67;7.57;;;;;;;;;;5091017;28;20032;-66
2022/03/28 12:33:15;;;;;;;14.77;5.47;;;;;;;;;;5098445;28;20034;-67
2022/03/28 12:35:43;;;;;;;14.23;6.30;;;;;;;;;;5095740;28;20425;-67
2022/03/28 12:38:13;;;;;;;24.17;8.27;;;;;;;;;;5096757;28;20473;-67
2022/03/28 12:40:40;;;;;;;6.53;4.05;;;;;;;;;;5111646;28;20106;-67
2022/03/28 12:43:06;;;;;;;21.40;9.50;;;;;;;;;;5098333;28;20038;-67
2022/03/28 12:45:32;;;;;;;16.67;7.47;;;;;;;;;;5094722;28;20039;-66
2022/03/28 12:48:03;;;;;;;21.27;8.38;;;;;;;;;;5105270;28;20019;-66
2022/03/28 12:50:31;;;;;;;22.23;8.65;;;;;;;;;;5106619;28;20055;-66
2022/03/28 12:53:09;;;;;;;9.02;4.32;;;;;;;;;;5093118;28;20042;-67
2022/03/28 12:55:35;;;;;;;15.60;6.95;;;;;;;;;;5098862;28;20385;-67
2022/03/28 12:58:01;;;;;;;12.02;5.60;;;;;;;;;;5098308;28;20491;-67
2022/03/28 13:00:27;;;;;;;8.27;3.33;;;;;;;;;;5089878;28;20421;-67
2022/03/28 13:02:54;;;;;;;11.32;5.82;;;;;;;;;;5101343;28;20100;-67
2022/03/28 13:05:20;;;;;;;21.38;7.90;;;;;;;;;;5109465;28;20049;-66
2022/03/28 13:07:47;;;;;;;7.32;3.33;;;;;;;;;;5088074;28;20410;-67
2022/03/28 13:10:20;;;;;;;15.30;6.53;;;;;;;;;;5089510;28;20028;-67
2022/03/28 13:12:47;;;;;;;11.27;4.15;;;;;;;;;;5101450;28;20122;-67
2022/03/28 13:15:20;;;;;;;7.13;3.78;;;;;;;;;;5109795;28;20054;-67
2022/03/28 13:17:48;;;;;;;19.02;7.53;;;;;;;;;;5110666;28;20495;-68
2022/03/28 13:20:18;;;;;;;16.88;7.95;;;;;;;;;;5102614;28;20404;-67
2022/03/28 13:22:46;;;;;;;24.75;8.48;;;;;;;;;;5097381;28;20673;-67
2022/03/28 13:25:17;;;;;;;15.55;6.93;;;;;;;;;;5091384;28;20028;-66
2022/03/28 13:28:08;;;;;;;10.32;4.15;;;;;;;;;;5089697;28;20036;-68
2022/03/28 13:30:35;;;;;;;9.35;3.50;;;;;;;;;;5108092;28;20047;-67
2022/03/28 13:33:02;;;;;;;8.43;3.35;;;;;;;;;;5102240;28;20020;-67
2022/03/28 13:35:29;;;;;;;11.90;6.25;;;;;;;;;;5106822;28;20110;-66
2022/03/28 13:37:59;;;;;;;17.67;8.18;;;;;;;;;;5110755;28;20020;-67
2022/03/28 13:40:26;;;;;;;20.95;7.63;;;;;;;;;;5092698;28;20072;-66
2022/03/28 13:42:52;;;;;;;15.02;6.22;;;;;;;;;;5089076;28;20112;-67
2022/03/28 13:45:18;;;;;;;15.73;6.43;;;;;;;;;;5089484;28;20026;-67
2022/03/28 13:50:47;;;;;;;22.73;9.98;;;;;;;;;;5098082;28;20038;-66
2022/03/28 13:53:14;;;;;;;14.23;6.63;;;;;;;;;;5106020;28;20024;-67
2022/03/28 13:55:40;;;;;;;18.33;7.55;;;;;;;;;;5097402;28;20022;-67
2022/03/28 13:58:07;;;;;;;12.57;4.47;;;;;;;;;;5086708;28;20122;-67
2022/03/28 14:00:33;;;;;;;6.43;4.63;;;;;;;;;;5105774;28;20024;-68
2022/03/28 14:02:59;;;;;;;20.23;7.45;;;;;;;;;;5097694;28;20043;-69
2022/03/28 14:05:27;;;;;;;18.38;5.82;;;;;;;;;;5109403;28;20030;-66
2022/03/28 14:07:53;;;;;;;8.23;3.58;;;;;;;;;;5102458;28;20074;-67
2022/03/28 14:10:19;;;;;;;20.58;8.80;;;;;;;;;;5096395;28;20075;-67
2022/03/28 14:13:07;;;;;;;12.65;5.93;;;;;;;;;;5096753;28;20028;-68
2022/03/28 14:15:35;;;;;;;19.35;6.43;;;;;;;;;;5109073;28;20052;-66
2022/03/28 14:18:01;;;;;;;16.52;6.38;;;;;;;;;;5098956;28;20481;-68
2022/03/28 14:20:28;;;;;;;22.55;8.38;;;;;;;;;;5111401;28;20096;-68
2022/03/28 14:22:54;;;;;;;13.82;6.50;;;;;;;;;;5098192;28;20031;-67
2022/03/28 14:25:22;;;;;;;27.27;9.38;;;;;;;;;;5085287;28;20259;-67
2022/03/28 14:27:48;;;;;;;16.48;6.80;;;;;;;;;;5103438;28;20480;-68
2022/03/28 14:30:15;;;;;;;19.13;7.22;;;;;;;;;;5102415;28;20077;-67
2022/03/28 14:32:41;;;;;;;19.30;9.32;;;;;;;;;;5110711;28;20034;-67
2022/03/28 14:35:11;;;;;;;24.95;9.55;;;;;;;;;;5112463;28;20031;-68
2022/03/28 14:37:37;;;;;;;19.30;7.83;;;;;;;;;;5096697;28;20024;-67
2022/03/28 14:40:04;;;;;;;18.73;8.68;;;;;;;;;;5109922;28;20276;-68